Norwegian Crown — C6II4 — position and weather

sailwx.info

Track history (hours):
 
Tides and Currents Weather Stations Pressure Air Temp Water Temp Dewpoint Dewpoint Depression Visibility Wind Speed Wind Dir Waves Ship Positions

Norwegian Crown

Operator: Norwegian Cruise Line

Last reported at 2016-Jun-25 04:33 UTC. Time now 2016-Jun-25 14:18 UTC.
Position N 55°45' W 006°44'.

Type: Ship. MMSI: 308785000.

Date/timePositionNaut miles runAvg speedWind from/ knotsBaromVisibWave heightAir tempDewpointWater temp
2016-Jun-25 04:33N 55°45' W 006°44'1717.4
2016-Jun-25 03:33N 55°31' W 006°28'1716.7
2016-Jun-25 02:33N 55°24' W 006°01'1615.7
2016-Jun-25 01:33N 55°10' W 005°48'1515.2
2016-Jun-25 00:33N 54°57' W 005°34'1514.6
2016-Jun-24 23:33N 54°45' W 005°20'1414.3
2016-Jun-24 22:33N 54°31' W 005°15'1515.2
2016-Jun-24 21:33N 54°16' W 005°11'1616.1
2016-Jun-24 20:33N 54°00' W 005°06'88 2.4
2016-Jun-23 07:23N 52°35' W 005°42'7615.3
2016-Jun-23 02:24N 51°19' W 005°53'1415.3
2016-Jun-23 01:29N 51°05' W 005°53'1415.5
2016-Jun-23 00:33N 50°51' W 005°50'1515.3
2016-Jun-22 23:33N 50°35' W 005°52'1515.1
2016-Jun-22 22:33N 50°20' W 005°55'1514.6
2016-Jun-22 21:33N 50°06' W 005°54'1313.5
2016-Jun-22 20:33N 49°54' W 005°45'1514.7
2016-Jun-22 19:33N 49°51' W 005°22'1414.0
2016-Jun-22 18:33N 49°54' W 005°01'1413.8
2016-Jun-22 17:33N 50°08' W 005°01'2 1.9
2016-Jun-22 16:33N 50°09' W 005°04'0 0.0
2016-Jun-22 15:33N 50°09' W 005°04'0 0.0
2016-Jun-22 14:33N 50°09' W 005°04'0 0.0
2016-Jun-22 13:24N 50°09' W 005°04'0 0.0
2016-Jun-22 12:33N 50°09' W 005°04'0 0.0
2016-Jun-22 11:33N 50°09' W 005°04'0 0.0
2016-Jun-22 10:33N 50°09' W 005°04'0 0.0
2016-Jun-22 09:33N 50°09' W 005°04'0 0.0
2016-Jun-22 08:33N 50°09' W 005°04'0 0.0
2016-Jun-22 07:33N 50°09' W 005°04'0 0.0
2016-Jun-22 06:33N 50°09' W 005°04'2 2.0
2016-Jun-22 05:32N 50°08' W 005°02'7 6.7
2016-Jun-22 04:33N 50°02' W 004°57'6 6.3
2016-Jun-22 03:33N 49°58' W 004°49'9 9.3
2016-Jun-22 02:33N 49°54' W 004°36'1110.9
2016-Jun-22 01:32N 49°50' W 004°20'1211.4
2016-Jun-22 00:30N 49°45' W 004°03'1112.2
2016-Jun-21 23:33N 49°41' W 003°46'1212.0
2016-Jun-21 22:33N 49°37' W 003°29'1111.2
2016-Jun-21 21:33N 49°33' W 003°13'1110.7
2016-Jun-21 20:33N 49°29' W 002°57'1412.5
2016-Jun-21 19:28N 49°23' W 002°39'7 1.1
2016-Jun-21 13:04N 49°28' W 002°31'21 2.2
2016-Jun-21 03:29N 49°39' W 002°05'4615.4
2016-Jun-21 00:30N 50°14' W 001°19'1716.9
2016-Jun-20 23:30N 50°19' W 000°53'1415.2
2016-Jun-20 22:33N 50°23' W 000°32'1514.4
2016-Jun-20 21:31N 50°27' W 000°09'1313.6
2016-Jun-20 20:34N 50°30' E 000°11'1413.9
2016-Jun-20 19:33N 50°34' E 000°32'2015.4
2016-Jun-20 18:14N 50°46' E 000°58'1116.3
2016-Jun-20 17:33N 50°54' E 001°10'1413.9
2016-Jun-20 16:33N 51°06' E 001°21'1 1.0
2016-Jun-20 15:29N 51°07' E 001°19'0 0.0
2016-Jun-20 14:29N 51°07' E 001°19'0 0.0
2016-Jun-20 13:29N 51°07' E 001°19'0 0.0
2016-Jun-20 12:29N 51°07' E 001°19'0 0.0
2016-Jun-20 11:29N 51°07' E 001°19'0 0.0
2016-Jun-20 10:29N 51°07' E 001°19'0 0.0
2016-Jun-20 09:29N 51°07' E 001°19'0 0.0
2016-Jun-20 08:29N 51°07' E 001°19'0 0.0
2016-Jun-20 07:23N 51°07' E 001°19'0 0.0
2016-Jun-20 06:23N 51°07' E 001°19'0 0.0
2016-Jun-20 05:29N 51°07' E 001°19'0 0.2
2016-Jun-20 04:33N 51°07' E 001°20'9 8.8
2016-Jun-20 03:33N 51°08' E 001°33'10 9.6
2016-Jun-20 02:33N 51°14' E 001°45'8 7.9
2016-Jun-20 01:34N 51°21' E 001°52'8 7.7
2016-Jun-20 00:33N 51°28' E 001°57'8 8.1
2016-Jun-19 23:33N 51°34' E 002°05'8 8.5
2016-Jun-19 22:33N 51°40' E 002°14'40 7.9
2016-Jun-19 17:30N 52°17' E 002°38'7 7.8
2016-Jun-19 16:33N 52°25' E 002°37'7 7.0
2016-Jun-19 15:32N 52°32' E 002°36'40 6.7
2016-Jun-19 09:33N 53°10' E 002°16'18 8.8
2016-Jun-19 07:33N 53°23' E 001°56'1511.4
2016-Jun-19 06:14N 53°33' E 001°37'3212.1
2016-Jun-19 03:34N 53°55' E 000°57'1211.8
2016-Jun-19 02:34N 54°04' E 000°45'1211.6
2016-Jun-19 01:34N 54°14' E 000°33'1111.1
2016-Jun-19 00:33N 54°22' E 000°20'1110.8
2016-Jun-18 23:34N 54°30' E 000°08'1010.4
2016-Jun-18 22:34N 54°37' W 000°05'1010.1
2016-Jun-18 21:33N 54°45' W 000°17'10 9.8
2016-Jun-18 20:33N 54°50' W 000°31'1010.2
2016-Jun-18 19:33N 54°53' W 000°48'1010.1
2016-Jun-18 18:33N 54°57' W 001°04'1010.4
2016-Jun-18 17:34N 55°00' W 001°21'4 3.5
2016-Jun-18 16:32N 54°60' W 001°27'0 0.0
2016-Jun-18 15:32N 54°60' W 001°27'0 0.0
2016-Jun-18 14:32N 54°60' W 001°27'0 0.0
2016-Jun-18 13:32N 54°60' W 001°27'0 0.0
2016-Jun-18 12:32N 54°60' W 001°27'0 0.0
2016-Jun-18 11:32N 54°60' W 001°27'0 0.0
2016-Jun-18 10:32N 54°60' W 001°27'0 0.0
2016-Jun-18 09:32N 54°60' W 001°27'0 0.0
2016-Jun-18 08:32N 54°60' W 001°27'0 0.0
2016-Jun-18 07:32N 54°60' W 001°27'0 0.0
2016-Jun-18 06:32N 54°60' W 001°27'0 0.0
2016-Jun-18 05:32N 54°60' W 001°27'0 0.1
2016-Jun-18 04:33N 54°60' W 001°27'1010.3
2016-Jun-18 03:33N 55°04' W 001°11'1615.7
2016-Jun-18 02:33N 55°17' W 000°54'1716.4
2016-Jun-18 01:30N 55°32' W 000°39'19112.0
2016-Jun-17 09:33N 58°22' E 002°01'194 5.4
2016-Jun-15 21:33N 61°16' E 004°51'1414.2
2016-Jun-15 20:32N 61°30' E 004°59'  
Track history (hours):
 
Tides and Currents Weather Stations Pressure Air Temp Water Temp Dewpoint Dewpoint Depression Visibility Wind Speed Wind Dir Waves Ship Positions

Norwegian Crown

Operator: Norwegian Cruise Line

Last reported at 2016-Jun-25 04:33 UTC. Time now 2016-Jun-25 14:18 UTC.
Position N 55°45' W 006°44'.

Type: Ship. MMSI: 308785000.

Date/timePositionNaut miles runAvg speedWind from/ knotsBaromVisibWave heightAir tempDewpointWater temp
2016-Jun-25 04:33N 55°45' W 006°44'1717.4
2016-Jun-25 03:33N 55°31' W 006°28'1716.7
2016-Jun-25 02:33N 55°24' W 006°01'1615.7
2016-Jun-25 01:33N 55°10' W 005°48'1515.2
2016-Jun-25 00:33N 54°57' W 005°34'1514.6
2016-Jun-24 23:33N 54°45' W 005°20'1414.3
2016-Jun-24 22:33N 54°31' W 005°15'1515.2
2016-Jun-24 21:33N 54°16' W 005°11'1616.1
2016-Jun-24 20:33N 54°00' W 005°06'88 2.4
2016-Jun-23 07:23N 52°35' W 005°42'7615.3
2016-Jun-23 02:24N 51°19' W 005°53'1415.3
2016-Jun-23 01:29N 51°05' W 005°53'1415.5
2016-Jun-23 00:33N 50°51' W 005°50'1515.3
2016-Jun-22 23:33N 50°35' W 005°52'1515.1
2016-Jun-22 22:33N 50°20' W 005°55'1514.6
2016-Jun-22 21:33N 50°06' W 005°54'1313.5
2016-Jun-22 20:33N 49°54' W 005°45'1514.7
2016-Jun-22 19:33N 49°51' W 005°22'1414.0
2016-Jun-22 18:33N 49°54' W 005°01'1413.8
2016-Jun-22 17:33N 50°08' W 005°01'2 1.9
2016-Jun-22 16:33N 50°09' W 005°04'0 0.0
2016-Jun-22 15:33N 50°09' W 005°04'0 0.0
2016-Jun-22 14:33N 50°09' W 005°04'0 0.0
2016-Jun-22 13:24N 50°09' W 005°04'0 0.0
2016-Jun-22 12:33N 50°09' W 005°04'0 0.0
2016-Jun-22 11:33N 50°09' W 005°04'0 0.0
2016-Jun-22 10:33N 50°09' W 005°04'0 0.0
2016-Jun-22 09:33N 50°09' W 005°04'0 0.0
2016-Jun-22 08:33N 50°09' W 005°04'0 0.0
2016-Jun-22 07:33N 50°09' W 005°04'0 0.0
2016-Jun-22 06:33N 50°09' W 005°04'2 2.0
2016-Jun-22 05:32N 50°08' W 005°02'7 6.7
2016-Jun-22 04:33N 50°02' W 004°57'6 6.3
2016-Jun-22 03:33N 49°58' W 004°49'9 9.3
2016-Jun-22 02:33N 49°54' W 004°36'1110.9
2016-Jun-22 01:32N 49°50' W 004°20'1211.4
2016-Jun-22 00:30N 49°45' W 004°03'1112.2
2016-Jun-21 23:33N 49°41' W 003°46'1212.0
2016-Jun-21 22:33N 49°37' W 003°29'1111.2
2016-Jun-21 21:33N 49°33' W 003°13'1110.7
2016-Jun-21 20:33N 49°29' W 002°57'1412.5
2016-Jun-21 19:28N 49°23' W 002°39'7 1.1
2016-Jun-21 13:04N 49°28' W 002°31'21 2.2
2016-Jun-21 03:29N 49°39' W 002°05'4615.4
2016-Jun-21 00:30N 50°14' W 001°19'1716.9
2016-Jun-20 23:30N 50°19' W 000°53'1415.2
2016-Jun-20 22:33N 50°23' W 000°32'1514.4
2016-Jun-20 21:31N 50°27' W 000°09'1313.6
2016-Jun-20 20:34N 50°30' E 000°11'1413.9
2016-Jun-20 19:33N 50°34' E 000°32'2015.4
2016-Jun-20 18:14N 50°46' E 000°58'1116.3
2016-Jun-20 17:33N 50°54' E 001°10'1413.9
2016-Jun-20 16:33N 51°06' E 001°21'1 1.0
2016-Jun-20 15:29N 51°07' E 001°19'0 0.0
2016-Jun-20 14:29N 51°07' E 001°19'0 0.0
2016-Jun-20 13:29N 51°07' E 001°19'0 0.0
2016-Jun-20 12:29N 51°07' E 001°19'0 0.0
2016-Jun-20 11:29N 51°07' E 001°19'0 0.0
2016-Jun-20 10:29N 51°07' E 001°19'0 0.0
2016-Jun-20 09:29N 51°07' E 001°19'0 0.0
2016-Jun-20 08:29N 51°07' E 001°19'0 0.0
2016-Jun-20 07:23N 51°07' E 001°19'0 0.0
2016-Jun-20 06:23N 51°07' E 001°19'0 0.0
2016-Jun-20 05:29N 51°07' E 001°19'0 0.2
2016-Jun-20 04:33N 51°07' E 001°20'9 8.8
2016-Jun-20 03:33N 51°08' E 001°33'10 9.6
2016-Jun-20 02:33N 51°14' E 001°45'8 7.9
2016-Jun-20 01:34N 51°21' E 001°52'8 7.7
2016-Jun-20 00:33N 51°28' E 001°57'8 8.1
2016-Jun-19 23:33N 51°34' E 002°05'8 8.5
2016-Jun-19 22:33N 51°40' E 002°14'40 7.9
2016-Jun-19 17:30N 52°17' E 002°38'7 7.8
2016-Jun-19 16:33N 52°25' E 002°37'7 7.0
2016-Jun-19 15:32N 52°32' E 002°36'40 6.7
2016-Jun-19 09:33N 53°10' E 002°16'18 8.8
2016-Jun-19 07:33N 53°23' E 001°56'1511.4
2016-Jun-19 06:14N 53°33' E 001°37'3212.1
2016-Jun-19 03:34N 53°55' E 000°57'1211.8
2016-Jun-19 02:34N 54°04' E 000°45'1211.6
2016-Jun-19 01:34N 54°14' E 000°33'1111.1
2016-Jun-19 00:33N 54°22' E 000°20'1110.8
2016-Jun-18 23:34N 54°30' E 000°08'1010.4
2016-Jun-18 22:34N 54°37' W 000°05'1010.1
2016-Jun-18 21:33N 54°45' W 000°17'10 9.8
2016-Jun-18 20:33N 54°50' W 000°31'1010.2
2016-Jun-18 19:33N 54°53' W 000°48'1010.1
2016-Jun-18 18:33N 54°57' W 001°04'1010.4
2016-Jun-18 17:34N 55°00' W 001°21'4 3.5
2016-Jun-18 16:32N 54°60' W 001°27'0 0.0
2016-Jun-18 15:32N 54°60' W 001°27'0 0.0
2016-Jun-18 14:32N 54°60' W 001°27'0 0.0
2016-Jun-18 13:32N 54°60' W 001°27'0 0.0
2016-Jun-18 12:32N 54°60' W 001°27'0 0.0
2016-Jun-18 11:32N 54°60' W 001°27'0 0.0
2016-Jun-18 10:32N 54°60' W 001°27'0 0.0
2016-Jun-18 09:32N 54°60' W 001°27'0 0.0
2016-Jun-18 08:32N 54°60' W 001°27'0 0.0
2016-Jun-18 07:32N 54°60' W 001°27'0 0.0
2016-Jun-18 06:32N 54°60' W 001°27'0 0.0
2016-Jun-18 05:32N 54°60' W 001°27'0 0.1
2016-Jun-18 04:33N 54°60' W 001°27'1010.3
2016-Jun-18 03:33N 55°04' W 001°11'1615.7
2016-Jun-18 02:33N 55°17' W 000°54'1716.4
2016-Jun-18 01:30N 55°32' W 000°39'19112.0
2016-Jun-17 09:33N 58°22' E 002°01'194 5.4
2016-Jun-15 21:33N 61°16' E 004°51'1414.2
2016-Jun-15 20:32N 61°30' E 004°59'  

Dump ship's entire track history